createdAt,value
2023-05-17T00:03:27.720Z,74.31
2023-05-17T00:08:30.713Z,74.28
2023-05-17T00:13:33.759Z,74.31
2023-05-17T00:18:36.918Z,74.05
2023-05-17T00:23:40.159Z,74.02
2023-05-17T00:28:43.301Z,73.76
2023-05-17T00:33:47.708Z,73.90
2023-05-17T00:38:55.667Z,73.86
2023-05-17T00:44:01.089Z,73.98
2023-05-17T00:49:04.556Z,73.91
2023-05-17T00:54:07.843Z,73.99
2023-05-17T00:59:13.464Z,74.26
2023-05-17T01:04:17.732Z,74.44
2023-05-17T01:09:20.924Z,74.52
2023-05-17T01:14:31.543Z,74.29
2023-05-17T01:19:44.769Z,74.26
2023-05-17T01:24:53.249Z,74.02
2023-05-17T01:29:57.785Z,74.02
2023-05-17T01:35:00.934Z,74.39
2023-05-17T01:40:05.255Z,74.38
2023-05-17T01:45:26.554Z,74.27
2023-05-17T01:50:32.926Z,74.38
2023-05-17T01:55:49.216Z,74.31
2023-05-17T02:00:58.258Z,74.47
2023-05-17T02:06:01.318Z,74.40
2023-05-17T02:11:04.694Z,74.40
2023-05-17T02:16:07.716Z,74.49
2023-05-17T02:21:11.489Z,74.72
2023-05-17T02:26:14.478Z,74.70
2023-05-17T02:31:17.566Z,74.51
2023-05-17T02:36:20.614Z,74.44
2023-05-17T02:41:23.795Z,74.75
2023-05-17T02:46:27.100Z,74.82
2023-05-17T02:51:30.161Z,74.87
2023-05-17T02:56:34.231Z,74.58
2023-05-17T03:01:37.480Z,74.48
2023-05-17T03:06:41.760Z,74.67
2023-05-17T03:11:45.520Z,74.42
2023-05-17T03:16:55.264Z,74.29
2023-05-17T03:21:58.968Z,74.33
2023-05-17T03:27:02.331Z,74.46
2023-05-17T03:32:06.060Z,74.43
2023-05-17T03:37:09.284Z,74.60
2023-05-17T03:42:13.017Z,74.48
2023-05-17T03:47:16.419Z,74.51
2023-05-17T03:52:20.078Z,74.69
2023-05-17T03:57:24.602Z,74.71
2023-05-17T04:02:27.801Z,74.68
2023-05-17T04:07:31.191Z,74.98
2023-05-17T04:12:34.318Z,75.08
2023-05-17T04:17:37.781Z,75.13
2023-05-17T04:22:40.963Z,75.10
2023-05-17T04:27:47.895Z,74.92
2023-05-17T04:32:51.471Z,75.00
2023-05-17T04:37:55.569Z,74.89
2023-05-17T04:42:58.822Z,75.14
2023-05-17T04:48:02.687Z,75.19
2023-05-17T04:53:06.858Z,75.30
2023-05-17T04:58:11.449Z,75.25
2023-05-17T05:03:15.082Z,75.23
2023-05-17T05:08:18.363Z,75.52
2023-05-17T05:13:23.127Z,75.85
2023-05-17T05:18:28.912Z,75.73
2023-05-17T05:23:33.171Z,75.66
2023-05-17T05:28:37.479Z,75.62
2023-05-17T05:33:41.023Z,75.63
2023-05-17T05:38:44.339Z,75.76
2023-05-17T05:43:47.580Z,75.46
2023-05-17T05:48:51.067Z,75.45
2023-05-17T05:53:54.318Z,75.64
2023-05-17T05:58:58.077Z,75.61
2023-05-17T06:04:02.108Z,75.72
2023-05-17T06:09:07.156Z,75.46
2023-05-17T06:14:10.342Z,75.34
2023-05-17T06:19:13.477Z,75.53
2023-05-17T06:24:17.081Z,75.79
2023-05-17T06:29:20.182Z,75.47
2023-05-17T06:34:23.366Z,74.96
2023-05-17T06:39:26.448Z,74.75
2023-05-17T06:44:29.489Z,74.94
2023-05-17T06:49:32.628Z,74.91
2023-05-17T06:54:36.052Z,74.86
2023-05-17T06:59:39.225Z,74.96
2023-05-17T07:04:42.308Z,75.08
2023-05-17T07:09:45.711Z,75.21
2023-05-17T07:14:48.852Z,75.15
2023-05-17T07:19:52.390Z,74.90
2023-05-17T07:24:55.603Z,74.74
2023-05-17T07:29:58.959Z,75.05
2023-05-17T07:35:03.235Z,75.19
2023-05-17T07:40:07.015Z,75.19
2023-05-17T07:45:10.372Z,75.35
2023-05-17T07:50:14.325Z,75.48
2023-05-17T07:55:17.544Z,75.38
2023-05-17T08:00:21.400Z,75.08
2023-05-17T08:05:24.641Z,75.06
2023-05-17T08:10:28.023Z,75.02
2023-05-17T08:15:31.296Z,75.17
2023-05-17T08:20:34.649Z,75.25
2023-05-17T08:25:37.912Z,75.46
2023-05-17T08:30:41.483Z,75.48
2023-05-17T08:35:44.517Z,75.28
2023-05-17T08:41:11.549Z,75.29
2023-05-17T08:46:21.911Z,75.42
2023-05-17T08:51:25.115Z,75.41
2023-05-17T08:56:30.858Z,75.34
2023-05-17T09:01:34.267Z,75.23
2023-05-17T09:06:37.616Z,74.93
2023-05-17T09:11:41.139Z,74.84
2023-05-17T09:16:44.227Z,75.04
2023-05-17T09:21:47.967Z,74.32
2023-05-17T09:26:51.186Z,74.08
2023-05-17T09:31:54.973Z,74.05
2023-05-17T09:36:58.103Z,73.82
2023-05-17T09:42:01.411Z,73.54
2023-05-17T09:47:04.981Z,73.64
2023-05-17T09:52:08.740Z,73.88
2023-05-17T09:57:11.933Z,73.96
2023-05-17T10:02:22.431Z,73.84
2023-05-17T10:07:26.873Z,73.40
2023-05-17T10:12:33.894Z,72.84
2023-05-17T10:17:39.357Z,72.92
2023-05-17T10:22:43.044Z,73.25
2023-05-17T10:27:47.450Z,73.24
2023-05-17T10:32:51.013Z,73.03
2023-05-17T10:37:54.411Z,72.93
2023-05-17T10:42:58.861Z,72.64
2023-05-17T10:48:06.219Z,72.90
2023-05-17T10:53:12.843Z,72.92
2023-05-17T10:58:17.234Z,72.46
2023-05-17T11:03:22.852Z,72.23
2023-05-17T11:08:25.982Z,72.14
2023-05-17T11:13:29.124Z,71.84
2023-05-17T11:18:57.716Z,71.99
2023-05-17T11:24:04.119Z,71.95
2023-05-17T11:29:10.746Z,71.88
2023-05-17T11:34:13.773Z,71.84
2023-05-17T11:39:20.602Z,71.93
2023-05-17T11:44:32.127Z,71.98
2023-05-17T11:49:39.041Z,71.98
2023-05-17T11:54:43.461Z,71.81
2023-05-17T11:59:46.511Z,72.26
2023-05-17T12:04:49.521Z,71.82
2023-05-17T12:09:53.115Z,71.74
2023-05-17T12:14:56.312Z,71.65
2023-05-17T12:20:09.556Z,71.81
2023-05-17T12:25:25.539Z,71.92
2023-05-17T12:30:29.185Z,72.10
2023-05-17T12:35:33.219Z,72.52
2023-05-17T12:40:36.654Z,72.52
2023-05-17T12:45:42.407Z,72.69
2023-05-17T12:50:46.457Z,72.78
2023-05-17T12:55:49.606Z,72.52
2023-05-17T13:01:03.157Z,71.99
2023-05-17T13:06:09.615Z,71.83
2023-05-17T13:11:14.827Z,71.67
2023-05-17T13:16:18.241Z,71.39
2023-05-17T13:21:22.044Z,70.72
2023-05-17T13:26:25.109Z,71.04
2023-05-17T13:31:28.363Z,71.38
2023-05-17T13:36:35.020Z,71.01
2023-05-17T13:41:44.604Z,70.90
2023-05-17T13:46:47.621Z,70.81
2023-05-17T13:51:50.865Z,70.94
2023-05-17T13:56:55.718Z,70.48
2023-05-17T14:01:59.127Z,70.94
2023-05-17T14:07:03.823Z,71.17
2023-05-17T14:12:07.080Z,71.29
2023-05-17T14:17:10.081Z,71.07
2023-05-17T14:22:13.928Z,70.76
2023-05-17T14:27:17.171Z,70.43
2023-05-17T14:32:21.648Z,70.10
2023-05-17T14:37:25.484Z,70.01
2023-05-17T14:42:28.691Z,69.71
2023-05-17T14:47:32.355Z,70.18
2023-05-17T14:52:36.629Z,70.36
2023-05-17T14:57:40.328Z,70.21
2023-05-17T15:02:43.453Z,70.15
2023-05-17T15:07:47.611Z,70.26
2023-05-17T15:12:50.645Z,70.19
2023-05-17T15:17:54.334Z,70.25
2023-05-17T15:22:57.355Z,70.37
2023-05-17T15:28:00.330Z,70.65
2023-05-17T15:33:03.795Z,70.66
2023-05-17T15:38:07.083Z,70.67
2023-05-17T15:48:11.834Z,70.29
2023-05-17T15:53:15.030Z,70.11
2023-05-17T15:58:18.881Z,70.18
2023-05-17T16:03:21.835Z,69.84
2023-05-17T16:08:25.677Z,70.20
2023-05-17T16:13:28.905Z,70.47
2023-05-17T16:18:33.105Z,70.80
2023-05-17T16:23:37.330Z,70.53
2023-05-17T16:28:40.727Z,70.49
2023-05-17T16:33:43.870Z,70.57
2023-05-17T16:38:46.944Z,70.78
2023-05-17T16:43:50.024Z,71.10
2023-05-17T16:48:54.057Z,71.40
2023-05-17T16:53:57.067Z,71.49
2023-05-17T17:01:59.973Z,71.63
2023-05-17T17:07:03.070Z,71.50
2023-05-17T17:12:20.192Z,71.67
2023-05-17T17:17:26.719Z,71.95
2023-05-17T17:22:29.725Z,72.05
2023-05-17T17:27:32.911Z,72.44
2023-05-17T17:32:36.161Z,72.79
2023-05-17T17:37:39.247Z,73.05
2023-05-17T17:42:42.366Z,75.29
2023-05-17T17:47:45.481Z,73.11
2023-05-17T17:52:49.999Z,73.06
2023-05-17T17:57:53.059Z,73.00
2023-05-17T18:02:56.773Z,72.84
2023-05-17T18:08:00.148Z,72.76
2023-05-17T18:13:03.604Z,72.78
2023-05-17T18:18:06.778Z,72.73
2023-05-17T18:23:09.965Z,72.66
2023-05-17T18:28:13.098Z,72.38
2023-05-17T18:33:16.274Z,71.89
2023-05-17T18:38:20.160Z,71.63
2023-05-17T18:43:23.226Z,71.39
2023-05-17T18:48:26.799Z,71.10
2023-05-17T18:53:30.125Z,70.84
2023-05-17T18:58:33.126Z,71.05
2023-05-17T19:03:36.744Z,70.92
2023-05-17T19:08:40.210Z,71.19
2023-05-17T19:13:43.715Z,71.28
2023-05-17T19:18:46.824Z,71.39
2023-05-17T19:23:49.985Z,71.64
2023-05-17T19:28:53.252Z,71.83
2023-05-17T19:33:57.211Z,72.04
2023-05-17T19:39:00.448Z,71.97
2023-05-17T19:44:03.699Z,72.68
2023-05-17T19:49:06.888Z,72.76
2023-05-17T19:54:10.040Z,72.02
2023-05-17T19:59:13.225Z,72.17
2023-05-17T20:04:16.862Z,72.16
2023-05-17T20:09:19.920Z,72.27
2023-05-17T20:14:23.036Z,72.35
2023-05-17T20:19:26.524Z,72.28
2023-05-17T20:24:29.795Z,72.38
2023-05-17T20:29:32.796Z,72.94
2023-05-17T20:34:35.883Z,73.33
2023-05-17T20:39:39.744Z,73.04
2023-05-17T20:44:45.432Z,73.19
2023-05-17T20:49:50.460Z,73.21
2023-05-17T20:54:53.844Z,73.26
2023-05-17T20:59:58.093Z,73.41
2023-05-17T21:05:01.185Z,73.54
2023-05-17T21:10:04.618Z,73.71
2023-05-17T21:15:30.874Z,73.83
2023-05-17T21:20:31.439Z,73.90
2023-05-17T21:25:35.175Z,73.89
2023-05-17T21:30:38.280Z,73.75
2023-05-17T21:35:41.441Z,73.76
2023-05-17T21:40:44.486Z,73.84
2023-05-17T21:45:47.577Z,73.98
2023-05-17T21:50:50.582Z,73.83
2023-05-17T21:56:02.186Z,73.85
2023-05-17T22:01:06.880Z,73.75
2023-05-17T22:06:10.146Z,73.74
2023-05-17T22:11:14.191Z,73.62
2023-05-17T22:16:18.817Z,73.50
2023-05-17T22:21:22.695Z,73.30
2023-05-17T22:26:25.889Z,73.36
2023-05-17T22:31:29.128Z,73.44
2023-05-17T22:36:32.422Z,73.48
2023-05-17T22:41:36.209Z,73.16
2023-05-17T22:46:42.336Z,73.17
2023-05-17T22:51:45.882Z,73.14
2023-05-17T22:56:48.968Z,73.10
2023-05-17T23:01:52.113Z,73.00
2023-05-17T23:07:02.964Z,72.55
2023-05-17T23:12:06.864Z,72.43
2023-05-17T23:17:10.053Z,72.40
2023-05-17T23:22:13.180Z,72.46
2023-05-17T23:27:18.545Z,72.44
2023-05-17T23:32:22.370Z,72.46
2023-05-17T23:37:25.412Z,72.47
2023-05-17T23:42:32.003Z,72.34
2023-05-17T23:47:35.136Z,71.98
2023-05-17T23:52:39.480Z,71.64
2023-05-17T23:57:42.635Z,71.46
